Aviation Digital Data Service (ADDS)

Output produced by METARs form (0330 UTC 01 August 2015)
found at http://aviationweather.gov/adds/metars/
 
KYNG 312324Z 0100/0124 24008KT P6SM FEW060 SCT100 
     FM010200 24006KT P6SM BKN100 
     FM010800 27005KT P6SM FEW080 
     FM011700 29010G18KT P6SM SCT050